Time;durP1;ratioP1;P1;durP2;ratioP2;P2;SDS_P1;SDS_P2;PMS_P1;PMS_P2;Temp;Humidity;BMP_temperature;BMP_pressure;BME280_temperature;BME280_humidity;BME280_pressure;Samples;Min_cycle;Max_cycle;Signal;HPM_P1;HPM_P2
2023/06/12 00:01:02;;;;;;;15.23;9.55;;;;;;;;;;5014247;28;20113;-73
2023/06/12 00:03:28;;;;;;;14.93;8.48;;;;;;;;;;5011386;28;20051;-73
2023/06/12 00:05:58;;;;;;;15.73;9.30;;;;;;;;;;5014328;28;20513;-73
2023/06/12 00:08:29;;;;;;;13.88;9.05;;;;;;;;;;5012645;28;20092;-73
2023/06/12 00:10:55;;;;;;;18.85;9.82;;;;;;;;;;5014424;28;20548;-73
2023/06/12 00:13:20;;;;;;;13.65;8.98;;;;;;;;;;5012810;28;20042;-73
2023/06/12 00:15:46;;;;;;;13.93;9.02;;;;;;;;;;5013085;28;20045;-73
2023/06/12 00:18:12;;;;;;;22.50;10.18;;;;;;;;;;5012723;28;20033;-73
2023/06/12 00:20:37;;;;;;;18.27;10.18;;;;;;;;;;5011289;28;20045;-73
2023/06/12 00:23:02;;;;;;;12.27;9.60;;;;;;;;;;5013466;28;20087;-73
2023/06/12 00:25:28;;;;;;;17.23;9.95;;;;;;;;;;5013594;28;20033;-73
2023/06/12 00:27:53;;;;;;;17.65;10.57;;;;;;;;;;5012463;28;20050;-73
2023/06/12 00:30:19;;;;;;;15.38;9.50;;;;;;;;;;5012772;28;20044;-73
2023/06/12 00:32:44;;;;;;;17.83;10.50;;;;;;;;;;5012725;28;20042;-73
2023/06/12 00:35:10;;;;;;;20.23;10.10;;;;;;;;;;5014175;28;20046;-73
2023/06/12 00:37:35;;;;;;;16.95;9.70;;;;;;;;;;5013345;28;20034;-73
2023/06/12 00:40:01;;;;;;;16.80;9.57;;;;;;;;;;5013995;28;20041;-73
2023/06/12 00:42:34;;;;;;;17.88;11.25;;;;;;;;;;5013108;28;20042;-73
2023/06/12 00:44:59;;;;;;;18.85;10.13;;;;;;;;;;5012434;28;20168;-73
2023/06/12 00:47:25;;;;;;;16.98;9.43;;;;;;;;;;5013603;28;20121;-73
2023/06/12 00:49:51;;;;;;;18.35;9.88;;;;;;;;;;5012413;28;20034;-73
2023/06/12 00:52:18;;;;;;;18.33;10.32;;;;;;;;;;5012426;28;20096;-73
2023/06/12 00:54:44;;;;;;;18.38;10.98;;;;;;;;;;5012465;28;20121;-73
2023/06/12 00:57:11;;;;;;;18.55;10.95;;;;;;;;;;5013364;28;20034;-73
2023/06/12 00:59:37;;;;;;;16.95;10.90;;;;;;;;;;5011697;28;20033;-73
2023/06/12 01:02:03;;;;;;;18.77;11.30;;;;;;;;;;5008603;28;20044;-73
2023/06/12 01:04:29;;;;;;;21.92;10.32;;;;;;;;;;5012282;28;20030;-73
2023/06/12 01:06:59;;;;;;;14.77;10.35;;;;;;;;;;5012157;28;20865;-73
2023/06/12 01:09:47;;;;;;;17.20;10.23;;;;;;;;;;5011568;28;20044;-74
2023/06/12 01:12:13;;;;;;;23.58;10.95;;;;;;;;;;5012328;28;20184;-73
2023/06/12 01:14:45;;;;;;;18.48;10.70;;;;;;;;;;5011495;28;20034;-73
2023/06/12 01:17:10;;;;;;;19.35;10.50;;;;;;;;;;5006989;28;20042;-73
2023/06/12 01:19:36;;;;;;;16.25;10.60;;;;;;;;;;5012914;28;20486;-73
2023/06/12 01:22:05;;;;;;;20.17;10.60;;;;;;;;;;5012710;28;20065;-73
2023/06/12 01:24:58;;;;;;;42.60;10.85;;;;;;;;;;5009691;28;20062;-73
2023/06/12 01:27:51;;;;;;;22.73;11.00;;;;;;;;;;5011179;28;20049;-74
2023/06/12 01:30:35;;;;;;;23.60;12.35;;;;;;;;;;5012949;28;20038;-74
2023/06/12 01:33:03;;;;;;;22.75;11.93;;;;;;;;;;5012930;28;20038;-74
2023/06/12 01:35:30;;;;;;;28.27;11.50;;;;;;;;;;5008220;28;20040;-74
2023/06/12 01:38:05;;;;;;;31.45;11.63;;;;;;;;;;5012795;28;20160;-74
2023/06/12 01:40:31;;;;;;;20.85;11.15;;;;;;;;;;5013337;28;20120;-74
2023/06/12 01:42:56;;;;;;;22.85;11.30;;;;;;;;;;5001958;28;20517;-73
2023/06/12 01:45:21;;;;;;;22.98;12.57;;;;;;;;;;5012147;28;20061;-74
2023/06/12 01:47:47;;;;;;;28.77;12.20;;;;;;;;;;5017001;28;20037;-74
2023/06/12 01:50:16;;;;;;;26.67;11.02;;;;;;;;;;5016909;28;20378;-74
2023/06/12 01:52:41;;;;;;;40.40;12.02;;;;;;;;;;5016623;28;20058;-74
2023/06/12 01:55:07;;;;;;;30.15;12.10;;;;;;;;;;5017029;28;20453;-74
2023/06/12 01:57:32;;;;;;;31.33;12.32;;;;;;;;;;5013203;28;20041;-74
2023/06/12 01:59:59;;;;;;;22.42;11.68;;;;;;;;;;5016202;28;20482;-74
2023/06/12 02:02:25;;;;;;;25.15;11.80;;;;;;;;;;5015185;28;20045;-74
2023/06/12 02:04:50;;;;;;;29.58;12.57;;;;;;;;;;5015148;28;20038;-74
2023/06/12 02:07:16;;;;;;;30.13;12.35;;;;;;;;;;5016392;28;20064;-74
2023/06/12 02:09:41;;;;;;;24.02;11.02;;;;;;;;;;5013451;28;20052;-74
2023/06/12 02:12:07;;;;;;;28.83;11.32;;;;;;;;;;5016391;28;20034;-74
2023/06/12 02:14:33;;;;;;;24.45;11.93;;;;;;;;;;5016683;28;20088;-74
2023/06/12 02:17:02;;;;;;;23.17;12.05;;;;;;;;;;5012953;28;20075;-74
2023/06/12 02:19:28;;;;;;;27.92;12.32;;;;;;;;;;5016051;28;20030;-75
2023/06/12 02:21:57;;;;;;;24.75;12.02;;;;;;;;;;5008881;28;20466;-75
2023/06/12 02:24:25;;;;;;;22.48;11.40;;;;;;;;;;5014834;28;20053;-74
2023/06/12 02:26:51;;;;;;;19.40;11.10;;;;;;;;;;5009006;28;20482;-74
2023/06/12 02:29:17;;;;;;;28.73;13.25;;;;;;;;;;5014982;28;20040;-74
2023/06/12 02:31:42;;;;;;;28.92;13.10;;;;;;;;;;5015870;28;20034;-74
2023/06/12 02:34:07;;;;;;;24.77;13.30;;;;;;;;;;5014980;28;20096;-74
2023/06/12 02:36:39;;;;;;;25.45;13.57;;;;;;;;;;5016138;28;20037;-74
2023/06/12 02:39:08;;;;;;;30.73;12.02;;;;;;;;;;5015591;28;20045;-74
2023/06/12 02:41:35;;;;;;;37.03;12.80;;;;;;;;;;5014609;28;20026;-74
2023/06/12 02:44:00;;;;;;;26.85;12.20;;;;;;;;;;5014767;28;20042;-74
2023/06/12 02:46:25;;;;;;;20.55;11.75;;;;;;;;;;5015562;28;20508;-73
2023/06/12 02:48:51;;;;;;;26.05;12.52;;;;;;;;;;5015972;28;20034;-75
2023/06/12 02:51:16;;;;;;;25.55;11.90;;;;;;;;;;5015773;28;20117;-74
2023/06/12 02:53:41;;;;;;;33.65;12.43;;;;;;;;;;5015710;28;20037;-75
2023/06/12 02:56:07;;;;;;;32.58;12.93;;;;;;;;;;5014770;28;20065;-74
2023/06/12 02:58:33;;;;;;;30.40;13.70;;;;;;;;;;5014329;28;20049;-74
2023/06/12 03:00:58;;;;;;;38.65;13.63;;;;;;;;;;5014291;28;20045;-74
2023/06/12 03:03:25;;;;;;;34.35;12.80;;;;;;;;;;5015297;28;20042;-74
2023/06/12 03:05:50;;;;;;;31.98;12.55;;;;;;;;;;5013829;28;20085;-75
2023/06/12 03:08:16;;;;;;;45.70;13.02;;;;;;;;;;5015009;28;20045;-74
2023/06/12 03:10:42;;;;;;;31.05;11.70;;;;;;;;;;5015130;28;20406;-74
2023/06/12 03:13:08;;;;;;;222.23;15.73;;;;;;;;;;5014103;28;20172;-75
2023/06/12 03:15:34;;;;;;;31.95;11.68;;;;;;;;;;5015260;28;20128;-75
2023/06/12 03:18:00;;;;;;;46.72;11.70;;;;;;;;;;5015095;28;20041;-74
2023/06/12 03:20:26;;;;;;;23.42;10.95;;;;;;;;;;5015140;28;20038;-74
2023/06/12 03:22:52;;;;;;;88.85;13.95;;;;;;;;;;5014522;28;20139;-74
2023/06/12 03:25:18;;;;;;;39.53;11.18;;;;;;;;;;5013893;28;20477;-74
2023/06/12 03:27:45;;;;;;;29.80;11.30;;;;;;;;;;5009027;28;20037;-74
2023/06/12 03:30:11;;;;;;;22.23;11.10;;;;;;;;;;5014897;28;20037;-75
2023/06/12 03:32:36;;;;;;;25.55;10.98;;;;;;;;;;5014712;28;20045;-74
2023/06/12 03:35:01;;;;;;;19.73;10.02;;;;;;;;;;5014059;28;20042;-74
2023/06/12 03:37:28;;;;;;;20.10;10.43;;;;;;;;;;5014314;28;20419;-74
2023/06/12 03:39:53;;;;;;;19.38;10.57;;;;;;;;;;5008866;28;20401;-74
2023/06/12 03:42:19;;;;;;;19.95;10.27;;;;;;;;;;5013465;28;20052;-74
2023/06/12 03:44:44;;;;;;;27.60;11.52;;;;;;;;;;5014901;28;20466;-74
2023/06/12 03:47:11;;;;;;;21.65;11.13;;;;;;;;;;5014797;28;20501;-74
2023/06/12 03:49:37;;;;;;;26.60;10.07;;;;;;;;;;5014237;28;20470;-74
2023/06/12 03:52:03;;;;;;;66.47;12.30;;;;;;;;;;5014562;28;20057;-75
2023/06/12 03:54:28;;;;;;;218.52;17.38;;;;;;;;;;5013346;28;20065;-74
2023/06/12 03:56:54;;;;;;;28.27;11.18;;;;;;;;;;5014233;28;20401;-74
2023/06/12 03:59:19;;;;;;;28.27;10.57;;;;;;;;;;5014347;28;20100;-75
2023/06/12 04:01:44;;;;;;;23.08;10.15;;;;;;;;;;5014347;28;20099;-74
2023/06/12 04:04:10;;;;;;;18.92;9.73;;;;;;;;;;5014547;28;20398;-75
2023/06/12 04:06:40;;;;;;;24.30;10.43;;;;;;;;;;5013486;28;20064;-75
2023/06/12 04:09:09;;;;;;;98.00;13.02;;;;;;;;;;5014332;28;20359;-75
2023/06/12 04:11:35;;;;;;;28.85;10.68;;;;;;;;;;5013998;28;20040;-74
2023/06/12 04:14:03;;;;;;;19.60;10.18;;;;;;;;;;5013813;28;20433;-75
2023/06/12 04:16:29;;;;;;;63.20;12.48;;;;;;;;;;5014284;28;20042;-74
2023/06/12 04:18:56;;;;;;;21.70;11.60;;;;;;;;;;5013890;28;20050;-75
2023/06/12 04:21:21;;;;;;;20.15;11.57;;;;;;;;;;5014132;28;20026;-75
2023/06/12 04:23:47;;;;;;;26.73;12.05;;;;;;;;;;5013195;28;20034;-75
2023/06/12 04:26:15;;;;;;;25.92;11.93;;;;;;;;;;5013394;28;20042;-75
2023/06/12 04:28:41;;;;;;;20.88;11.32;;;;;;;;;;5006205;28;20042;-74
2023/06/12 04:31:07;;;;;;;24.25;11.65;;;;;;;;;;5013555;28;20120;-75
2023/06/12 04:33:35;;;;;;;18.65;10.68;;;;;;;;;;5006124;28;20045;-74
2023/06/12 04:36:02;;;;;;;26.55;11.63;;;;;;;;;;5012936;28;20037;-74
2023/06/12 04:38:30;;;;;;;22.90;11.10;;;;;;;;;;5013110;28;20375;-75
2023/06/12 04:40:56;;;;;;;29.38;11.63;;;;;;;;;;5013636;28;20125;-75
2023/06/12 04:43:23;;;;;;;23.00;11.15;;;;;;;;;;5043951;28;20116;-75
2023/06/12 04:45:49;;;;;;;18.85;10.73;;;;;;;;;;5013838;28;20076;-74
2023/06/12 04:48:15;;;;;;;18.65;10.35;;;;;;;;;;5011971;28;20037;-75
2023/06/12 04:50:40;;;;;;;23.17;10.45;;;;;;;;;;5013418;28;20044;-75
2023/06/12 04:53:06;;;;;;;22.90;9.60;;;;;;;;;;5012617;28;20034;-75
2023/06/12 04:55:32;;;;;;;25.20;9.73;;;;;;;;;;5012440;28;20046;-74
2023/06/12 04:57:58;;;;;;;29.65;10.43;;;;;;;;;;5012193;28;20056;-75
2023/06/12 05:00:24;;;;;;;22.60;9.10;;;;;;;;;;5012101;28;20060;-75
2023/06/12 05:02:49;;;;;;;55.22;10.48;;;;;;;;;;5011706;28;20041;-74
2023/06/12 05:05:15;;;;;;;30.58;9.25;;;;;;;;;;5013439;28;20036;-75
2023/06/12 05:07:45;;;;;;;109.88;11.50;;;;;;;;;;5012671;28;20034;-75
2023/06/12 05:10:10;;;;;;;25.55;9.48;;;;;;;;;;5003724;28;20045;-75
2023/06/12 05:12:36;;;;;;;35.28;9.88;;;;;;;;;;5011962;28;20034;-75
2023/06/12 05:15:01;;;;;;;121.15;10.68;;;;;;;;;;5013330;28;20034;-75
2023/06/12 05:17:27;;;;;;;44.80;10.30;;;;;;;;;;5013168;28;20117;-75
2023/06/12 05:19:52;;;;;;;16.77;10.25;;;;;;;;;;5011691;28;20065;-75
2023/06/12 05:22:18;;;;;;;17.90;10.07;;;;;;;;;;5011821;28;20034;-74
2023/06/12 05:24:43;;;;;;;15.85;10.35;;;;;;;;;;5013370;28;20038;-74
2023/06/12 05:27:08;;;;;;;19.50;10.25;;;;;;;;;;5012888;28;20038;-75
2023/06/12 05:29:34;;;;;;;17.45;10.07;;;;;;;;;;5012958;28;20044;-75
2023/06/12 05:32:01;;;;;;;17.20;10.38;;;;;;;;;;5012819;28;20117;-75
2023/06/12 05:34:26;;;;;;;16.40;9.25;;;;;;;;;;5013335;28;20037;-75
2023/06/12 05:36:51;;;;;;;14.50;8.90;;;;;;;;;;5011787;28;20038;-75
2023/06/12 05:39:17;;;;;;;12.32;9.15;;;;;;;;;;5013070;28;20497;-75
2023/06/12 05:41:42;;;;;;;15.60;8.93;;;;;;;;;;5012938;28;20054;-74
2023/06/12 05:44:09;;;;;;;16.75;8.85;;;;;;;;;;5013254;28;20069;-75
2023/06/12 05:46:34;;;;;;;13.27;9.18;;;;;;;;;;5012781;28;20069;-74
2023/06/12 05:49:00;;;;;;;16.45;9.38;;;;;;;;;;5009769;28;20052;-74
2023/06/12 05:51:26;;;;;;;14.68;9.25;;;;;;;;;;5013070;28;20073;-74
2023/06/12 05:53:51;;;;;;;13.85;9.60;;;;;;;;;;5013053;28;20553;-74
2023/06/12 05:56:16;;;;;;;19.17;9.80;;;;;;;;;;5012592;28;20103;-74
2023/06/12 05:58:44;;;;;;;16.35;10.18;;;;;;;;;;5011198;28;20076;-75
2023/06/12 06:01:11;;;;;;;12.45;9.73;;;;;;;;;;5010078;28;20122;-74
2023/06/12 06:03:42;;;;;;;13.65;9.00;;;;;;;;;;5011710;28;20030;-74
2023/06/12 06:06:17;;;;;;;11.38;8.60;;;;;;;;;;5012159;28;20069;-74
2023/06/12 06:08:42;;;;;;;12.05;8.93;;;;;;;;;;5011494;28;20121;-75
2023/06/12 06:11:08;;;;;;;13.85;8.65;;;;;;;;;;5005420;28;20518;-74
2023/06/12 06:13:33;;;;;;;12.05;9.25;;;;;;;;;;5007710;28;20038;-74
2023/06/12 06:15:59;;;;;;;11.98;8.88;;;;;;;;;;5011301;28;20034;-74
2023/06/12 06:18:24;;;;;;;10.68;8.43;;;;;;;;;;5012739;28;20026;-74
2023/06/12 06:20:50;;;;;;;15.63;8.48;;;;;;;;;;5010050;28;20508;-74
2023/06/12 06:23:15;;;;;;;11.80;8.80;;;;;;;;;;5012349;28;20046;-74
2023/06/12 06:25:41;;;;;;;12.15;9.43;;;;;;;;;;5011632;28;20037;-74
2023/06/12 06:28:06;;;;;;;12.20;8.68;;;;;;;;;;5012505;28;20045;-74
2023/06/12 06:30:31;;;;;;;12.20;8.85;;;;;;;;;;5012785;28;20072;-74
2023/06/12 06:32:57;;;;;;;13.93;8.88;;;;;;;;;;5011392;28;20113;-74
2023/06/12 06:35:22;;;;;;;12.20;8.43;;;;;;;;;;5016010;28;20045;-74
2023/06/12 06:37:48;;;;;;;11.38;8.50;;;;;;;;;;5009041;28;20037;-74
2023/06/12 06:40:16;;;;;;;11.45;7.90;;;;;;;;;;5014260;28;20030;-74
2023/06/12 06:42:42;;;;;;;11.02;7.15;;;;;;;;;;5015997;28;20048;-74
2023/06/12 06:45:07;;;;;;;10.73;7.72;;;;;;;;;;5014422;28;20124;-74
2023/06/12 06:47:36;;;;;;;12.65;7.15;;;;;;;;;;5014619;28;20532;-74
2023/06/12 06:50:01;;;;;;;11.73;7.80;;;;;;;;;;5013759;28;20493;-74
2023/06/12 06:52:27;;;;;;;10.73;6.80;;;;;;;;;;5015792;28;20034;-74
2023/06/12 06:54:52;;;;;;;10.38;7.85;;;;;;;;;;5015897;28;20854;-74
2023/06/12 06:57:18;;;;;;;10.05;7.93;;;;;;;;;;5014895;28;20038;-74
2023/06/12 06:59:44;;;;;;;11.20;6.78;;;;;;;;;;5015822;28;20045;-74
2023/06/12 07:02:09;;;;;;;10.98;7.68;;;;;;;;;;5015211;28;20030;-73
2023/06/12 07:04:35;;;;;;;12.45;7.47;;;;;;;;;;5015558;28;20118;-73
2023/06/12 07:07:00;;;;;;;9.65;6.78;;;;;;;;;;5012433;28;20506;-73
2023/06/12 07:09:26;;;;;;;10.27;7.32;;;;;;;;;;5014834;28;20037;-74
2023/06/12 07:11:51;;;;;;;9.40;6.70;;;;;;;;;;5015519;28;20038;-74
2023/06/12 07:14:17;;;;;;;13.73;7.35;;;;;;;;;;5015085;28;20030;-74
2023/06/12 07:16:43;;;;;;;8.48;6.38;;;;;;;;;;5011768;28;20038;-74
2023/06/12 07:19:09;;;;;;;10.32;6.88;;;;;;;;;;5015194;28;20037;-74
2023/06/12 07:21:35;;;;;;;11.20;6.35;;;;;;;;;;5014995;28;20493;-73
2023/06/12 07:24:00;;;;;;;15.00;6.75;;;;;;;;;;5013317;28;20036;-74
2023/06/12 07:26:27;;;;;;;9.88;6.15;;;;;;;;;;5015011;28;20041;-74
2023/06/12 07:28:53;;;;;;;9.32;6.55;;;;;;;;;;5014241;28;20117;-74
2023/06/12 07:31:18;;;;;;;8.48;6.13;;;;;;;;;;5015138;28;20116;-74
2023/06/12 07:33:43;;;;;;;10.55;5.80;;;;;;;;;;5005566;28;20373;-74
2023/06/12 07:36:09;;;;;;;11.05;6.00;;;;;;;;;;5014770;28;20041;-74
2023/06/12 07:38:34;;;;;;;8.32;5.75;;;;;;;;;;5014040;28;20042;-74
2023/06/12 07:40:59;;;;;;;10.85;6.10;;;;;;;;;;5014065;28;20121;-74
2023/06/12 07:43:25;;;;;;;9.27;6.35;;;;;;;;;;5013606;28;20041;-74
2023/06/12 07:45:51;;;;;;;9.82;5.28;;;;;;;;;;5014486;28;20030;-74
2023/06/12 07:48:16;;;;;;;8.65;5.22;;;;;;;;;;5013596;28;20042;-74
2023/06/12 07:50:42;;;;;;;8.63;5.57;;;;;;;;;;5013996;28;20492;-74
2023/06/12 07:53:08;;;;;;;9.40;4.90;;;;;;;;;;5014077;28;20038;-74
2023/06/12 07:55:34;;;;;;;7.70;4.90;;;;;;;;;;5012695;28;20034;-74
2023/06/12 07:58:00;;;;;;;8.43;5.10;;;;;;;;;;5011386;28;20125;-74
2023/06/12 08:00:26;;;;;;;6.65;5.25;;;;;;;;;;5012413;28;20504;-74
2023/06/12 08:02:58;;;;;;;6.50;4.75;;;;;;;;;;5012714;28;20044;-74
2023/06/12 08:05:24;;;;;;;7.00;5.13;;;;;;;;;;5010952;28;20037;-75
2023/06/12 08:07:50;;;;;;;8.90;5.30;;;;;;;;;;5012615;28;20046;-74
2023/06/12 08:10:16;;;;;;;7.93;5.00;;;;;;;;;;5014487;28;20034;-75
2023/06/12 08:12:41;;;;;;;9.50;5.28;;;;;;;;;;5014115;28;20382;-74
2023/06/12 08:15:07;;;;;;;12.35;5.53;;;;;;;;;;5013106;28;20038;-74
2023/06/12 08:17:35;;;;;;;9.57;5.30;;;;;;;;;;5013985;28;20133;-74
2023/06/12 08:20:00;;;;;;;7.05;5.43;;;;;;;;;;5014233;28;20042;-75
2023/06/12 08:22:26;;;;;;;7.38;5.07;;;;;;;;;;5014152;28;20456;-75
2023/06/12 08:24:51;;;;;;;6.13;4.95;;;;;;;;;;5014212;28;20071;-75
2023/06/12 08:27:17;;;;;;;8.07;5.35;;;;;;;;;;5014196;28;20033;-75
2023/06/12 08:29:42;;;;;;;10.05;5.10;;;;;;;;;;5013845;28;20121;-75
2023/06/12 08:32:08;;;;;;;10.75;6.30;;;;;;;;;;5013758;28;20033;-74
2023/06/12 08:34:33;;;;;;;7.68;4.93;;;;;;;;;;5014019;28;20034;-74
2023/06/12 08:36:58;;;;;;;10.23;6.38;;;;;;;;;;5013934;28;20133;-74
2023/06/12 08:39:24;;;;;;;11.18;6.53;;;;;;;;;;5013977;28;20169;-74
2023/06/12 08:42:07;;;;;;;7.25;5.68;;;;;;;;;;5012967;28;20038;-71
2023/06/12 08:44:33;;;;;;;6.93;6.10;;;;;;;;;;5007622;28;20044;-71
2023/06/12 08:47:01;;;;;;;10.95;5.78;;;;;;;;;;5011822;28;20033;-71
2023/06/12 08:49:27;;;;;;;9.77;6.50;;;;;;;;;;5011938;28;20389;-72
2023/06/12 08:51:52;;;;;;;8.00;6.63;;;;;;;;;;4998336;28;20037;-72
2023/06/12 08:54:18;;;;;;;8.00;5.72;;;;;;;;;;5000045;28;20053;-73
2023/06/12 08:56:45;;;;;;;15.70;7.18;;;;;;;;;;5009958;28;20038;-72
2023/06/12 08:59:10;;;;;;;9.40;6.30;;;;;;;;;;5007356;28;20046;-73
2023/06/12 09:01:37;;;;;;;7.60;6.30;;;;;;;;;;5009985;28;20053;-74
2023/06/12 09:04:03;;;;;;;11.02;7.88;;;;;;;;;;5008835;28;20037;-73
2023/06/12 09:06:34;;;;;;;8.77;7.05;;;;;;;;;;5007252;28;20057;-73
2023/06/12 09:08:59;;;;;;;10.05;7.57;;;;;;;;;;5009008;28;20038;-73
2023/06/12 09:11:25;;;;;;;9.07;7.20;;;;;;;;;;5009867;28;20495;-73
2023/06/12 09:13:51;;;;;;;9.43;6.55;;;;;;;;;;5010082;28;20034;-73
2023/06/12 09:16:17;;;;;;;10.60;7.43;;;;;;;;;;5008827;28;20552;-73
2023/06/12 09:18:50;;;;;;;9.98;6.95;;;;;;;;;;5007742;28;20038;-73
2023/06/12 09:21:15;;;;;;;8.38;7.13;;;;;;;;;;5008583;28;20037;-73
2023/06/12 09:23:43;;;;;;;9.88;7.38;;;;;;;;;;5008190;28;20466;-73
2023/06/12 09:26:15;;;;;;;11.20;8.15;;;;;;;;;;5009285;28;20081;-73
2023/06/12 09:28:44;;;;;;;11.40;7.45;;;;;;;;;;5004370;28;20375;-73
2023/06/12 09:31:11;;;;;;;18.60;7.13;;;;;;;;;;5006482;28;20399;-73
2023/06/12 09:33:39;;;;;;;9.15;6.15;;;;;;;;;;5009400;28;20022;-72
2023/06/12 09:36:05;;;;;;;8.27;7.20;;;;;;;;;;5007209;28;20164;-73
2023/06/12 09:38:32;;;;;;;10.40;7.10;;;;;;;;;;5010001;28;20073;-73
2023/06/12 09:40:58;;;;;;;10.15;8.00;;;;;;;;;;5007156;28;21111;-73
2023/06/12 09:43:25;;;;;;;10.05;7.60;;;;;;;;;;5009654;28;20065;-73
2023/06/12 09:45:51;;;;;;;9.55;6.93;;;;;;;;;;5000437;28;20121;-73
2023/06/12 09:48:16;;;;;;;13.10;8.40;;;;;;;;;;5007115;28;20493;-73
2023/06/12 09:50:42;;;;;;;12.13;8.13;;;;;;;;;;5008869;28;20453;-73
2023/06/12 09:53:10;;;;;;;12.77;8.45;;;;;;;;;;5007499;28;20430;-73
2023/06/12 09:55:36;;;;;;;13.07;7.80;;;;;;;;;;4996373;28;20152;-74
2023/06/12 09:58:05;;;;;;;12.65;8.13;;;;;;;;;;5005876;28;20052;-73
2023/06/12 10:00:31;;;;;;;10.18;8.10;;;;;;;;;;5006599;28;20175;-73
2023/06/12 10:03:04;;;;;;;10.15;7.38;;;;;;;;;;5000031;28;20462;-73
2023/06/12 10:05:50;;;;;;;9.90;8.05;;;;;;;;;;5009560;28;20108;-73
2023/06/12 10:08:17;;;;;;;11.23;7.93;;;;;;;;;;5010703;28;20038;-73
2023/06/12 10:10:43;;;;;;;8.63;7.22;;;;;;;;;;5010851;28;20037;-71
2023/06/12 10:13:09;;;;;;;9.73;7.50;;;;;;;;;;5012052;28;20053;-71
2023/06/12 10:15:35;;;;;;;10.50;7.32;;;;;;;;;;5012196;28;20117;-71
2023/06/12 10:18:01;;;;;;;10.65;7.97;;;;;;;;;;5011571;28;20030;-72
2023/06/12 10:20:27;;;;;;;9.20;7.68;;;;;;;;;;5012636;28;20042;-71
2023/06/12 10:22:54;;;;;;;11.02;7.65;;;;;;;;;;5010406;28;20041;-73
2023/06/12 10:25:19;;;;;;;11.18;8.52;;;;;;;;;;5010961;28;20065;-73
2023/06/12 10:27:45;;;;;;;10.43;8.85;;;;;;;;;;5011260;28;20066;-73
2023/06/12 10:30:12;;;;;;;11.48;8.07;;;;;;;;;;5010195;28;20109;-73
2023/06/12 10:32:40;;;;;;;11.55;8.55;;;;;;;;;;5009704;28;20474;-72
2023/06/12 10:35:06;;;;;;;12.48;8.70;;;;;;;;;;5011111;28;20397;-73
2023/06/12 10:37:33;;;;;;;10.10;8.73;;;;;;;;;;5011386;28;20045;-73
2023/06/12 10:40:02;;;;;;;10.48;8.77;;;;;;;;;;5011351;28;20036;-73
2023/06/12 10:42:47;;;;;;;18.02;9.15;;;;;;;;;;5002445;28;20038;-73
2023/06/12 10:45:19;;;;;;;11.40;8.85;;;;;;;;;;5004823;28;20038;-73
2023/06/12 10:48:05;;;;;;;12.88;9.27;;;;;;;;;;5011696;28;20186;-73
2023/06/12 10:50:31;;;;;;;12.75;9.35;;;;;;;;;;5007499;28;20041;-73
2023/06/12 10:53:00;;;;;;;10.35;8.68;;;;;;;;;;5011452;28;20042;-72
2023/06/12 10:55:29;;;;;;;17.08;9.63;;;;;;;;;;5010104;28;20525;-73
2023/06/12 10:57:55;;;;;;;10.98;8.60;;;;;;;;;;5011141;28;20096;-73
2023/06/12 11:00:31;;;;;;;11.23;9.60;;;;;;;;;;5004749;28;20041;-73
2023/06/12 11:03:02;;;;;;;11.77;9.20;;;;;;;;;;5004540;28;20152;-73
2023/06/12 11:05:29;;;;;;;11.25;9.60;;;;;;;;;;5005883;28;20045;-73
2023/06/12 11:08:02;;;;;;;13.07;9.90;;;;;;;;;;5011964;28;20029;-73
2023/06/12 11:10:28;;;;;;;15.13;10.30;;;;;;;;;;5009804;28;20398;-73
2023/06/12 11:12:54;;;;;;;18.65;12.23;;;;;;;;;;5011873;28;20041;-73
2023/06/12 11:15:21;;;;;;;13.30;11.85;;;;;;;;;;5010656;28;20042;-73
2023/06/12 11:17:46;;;;;;;15.65;12.98;;;;;;;;;;5010207;28;20034;-72
2023/06/12 11:20:13;;;;;;;15.95;12.07;;;;;;;;;;5010229;28;20121;-72
2023/06/12 11:22:38;;;;;;;15.88;11.50;;;;;;;;;;5007325;28;20391;-72
2023/06/12 11:25:05;;;;;;;15.75;12.55;;;;;;;;;;5011192;28;20042;-72
2023/06/12 11:27:30;;;;;;;15.85;11.07;;;;;;;;;;5009547;28;20037;-73
2023/06/12 11:29:57;;;;;;;20.17;14.82;;;;;;;;;;5009882;28;20370;-72
2023/06/12 11:32:22;;;;;;;17.17;12.52;;;;;;;;;;5009018;28;20482;-73
2023/06/12 11:34:51;;;;;;;16.80;11.90;;;;;;;;;;5008187;28;20034;-72
2023/06/12 11:37:24;;;;;;;17.77;13.25;;;;;;;;;;5009132;28;20359;-73
2023/06/12 11:39:59;;;;;;;16.80;13.40;;;;;;;;;;5006918;28;20124;-72
2023/06/12 11:42:24;;;;;;;17.60;13.63;;;;;;;;;;5009123;28;20045;-72
2023/06/12 11:44:51;;;;;;;17.55;13.07;;;;;;;;;;5009336;28;20045;-73
2023/06/12 11:47:18;;;;;;;18.83;12.18;;;;;;;;;;5002488;28;20038;-72
2023/06/12 11:49:44;;;;;;;16.08;13.23;;;;;;;;;;5013890;28;20079;-73
2023/06/12 11:52:09;;;;;;;14.00;10.10;;;;;;;;;;5007934;28;20152;-73
2023/06/12 11:54:55;;;;;;;15.50;12.63;;;;;;;;;;4996187;28;20042;-73
2023/06/12 11:57:23;;;;;;;16.90;13.13;;;;;;;;;;5006502;28;20042;-73
2023/06/12 11:59:49;;;;;;;22.48;14.70;;;;;;;;;;5012151;28;20394;-73
2023/06/12 12:02:14;;;;;;;18.80;14.40;;;;;;;;;;5012802;28;20040;-73
2023/06/12 12:04:39;;;;;;;17.73;13.35;;;;;;;;;;5013422;28;20037;-73
2023/06/12 12:07:05;;;;;;;17.23;12.95;;;;;;;;;;5009857;28;20112;-73
2023/06/12 12:09:30;;;;;;;16.38;11.80;;;;;;;;;;5011946;28;20500;-73
2023/06/12 12:12:06;;;;;;;16.70;12.20;;;;;;;;;;5008542;28;20038;-73
2023/06/12 12:14:32;;;;;;;12.40;10.20;;;;;;;;;;5009186;28;20117;-73
2023/06/12 12:17:03;;;;;;;12.02;9.23;;;;;;;;;;5006983;28;20109;-73
2023/06/12 12:19:29;;;;;;;17.52;11.88;;;;;;;;;;5012530;28;20037;-73
2023/06/12 12:21:58;;;;;;;14.65;11.30;;;;;;;;;;5013462;28;20096;-73
2023/06/12 12:24:24;;;;;;;14.85;12.32;;;;;;;;;;5009313;28;20042;-73
2023/06/12 12:26:51;;;;;;;14.25;9.88;;;;;;;;;;5008540;28;20378;-73
2023/06/12 12:29:20;;;;;;;13.98;10.45;;;;;;;;;;5011213;28;20496;-73
2023/06/12 12:31:46;;;;;;;12.80;10.20;;;;;;;;;;5010326;28;20466;-73
2023/06/12 12:34:11;;;;;;;12.45;10.48;;;;;;;;;;5005174;28;20121;-73
2023/06/12 12:36:37;;;;;;;14.52;11.30;;;;;;;;;;5004584;28;20048;-73
2023/06/12 12:39:03;;;;;;;11.75;9.10;;;;;;;;;;5008464;28;20804;-73
2023/06/12 12:41:29;;;;;;;16.73;9.70;;;;;;;;;;5010717;28;20542;-73
2023/06/12 12:43:54;;;;;;;12.38;9.63;;;;;;;;;;5011307;28;20099;-73
2023/06/12 12:46:24;;;;;;;14.23;9.57;;;;;;;;;;5013157;28;20034;-73
2023/06/12 12:48:51;;;;;;;17.65;11.63;;;;;;;;;;5007011;28;20083;-72
2023/06/12 12:51:16;;;;;;;14.88;11.70;;;;;;;;;;5005808;28;20038;-73
2023/06/12 12:53:41;;;;;;;16.65;10.38;;;;;;;;;;5008837;28;20531;-72
2023/06/12 12:56:07;;;;;;;13.32;10.80;;;;;;;;;;5002113;28;20035;-72
2023/06/12 12:58:32;;;;;;;15.43;11.77;;;;;;;;;;5004014;28;20046;-72
2023/06/12 13:00:59;;;;;;;13.82;10.90;;;;;;;;;;4997306;28;20038;-73
2023/06/12 13:03:29;;;;;;;15.00;10.73;;;;;;;;;;5010618;28;20044;-73
2023/06/12 13:05:54;;;;;;;15.18;10.40;;;;;;;;;;5005244;28;20573;-72
2023/06/12 13:08:19;;;;;;;12.48;9.70;;;;;;;;;;5004373;28;20041;-72
2023/06/12 13:10:45;;;;;;;12.55;10.32;;;;;;;;;;5011874;28;20038;-72
2023/06/12 13:13:11;;;;;;;14.20;12.15;;;;;;;;;;5010915;28;20045;-72
2023/06/12 13:15:37;;;;;;;14.82;10.48;;;;;;;;;;5011825;28;20042;-72
2023/06/12 13:18:03;;;;;;;13.10;10.30;;;;;;;;;;5010828;28;20044;-72
2023/06/12 13:20:28;;;;;;;15.73;11.10;;;;;;;;;;5011431;28;20149;-72
2023/06/12 13:22:54;;;;;;;13.77;10.75;;;;;;;;;;5009899;28;20089;-72
2023/06/12 13:25:20;;;;;;;13.27;11.30;;;;;;;;;;5009247;28;20054;-73
2023/06/12 13:27:46;;;;;;;12.02;10.65;;;;;;;;;;5011079;28;20092;-72
2023/06/12 13:30:11;;;;;;;13.07;8.60;;;;;;;;;;5011310;28;20038;-72
2023/06/12 13:32:37;;;;;;;11.63;9.05;;;;;;;;;;5010528;28;20486;-72
2023/06/12 13:35:02;;;;;;;11.63;9.18;;;;;;;;;;5000197;28;20029;-72
2023/06/12 13:37:28;;;;;;;10.85;8.27;;;;;;;;;;5008007;28;20042;-73
2023/06/12 13:39:53;;;;;;;12.23;9.32;;;;;;;;;;5011902;28;20045;-73
2023/06/12 13:42:18;;;;;;;19.30;10.73;;;;;;;;;;5014472;28;20041;-73
2023/06/12 13:44:44;;;;;;;11.77;8.82;;;;;;;;;;5013987;28;20046;-72
2023/06/12 13:47:09;;;;;;;14.02;9.85;;;;;;;;;;5012418;28;20140;-72
2023/06/12 13:49:35;;;;;;;14.20;10.18;;;;;;;;;;5011277;28;20038;-72
2023/06/12 13:52:00;;;;;;;11.50;9.30;;;;;;;;;;5013147;28;20034;-72
2023/06/12 13:54:25;;;;;;;14.18;8.48;;;;;;;;;;5008801;28;20088;-72
2023/06/12 13:56:51;;;;;;;14.43;9.57;;;;;;;;;;5012062;28;20030;-72
2023/06/12 13:59:18;;;;;;;13.10;8.23;;;;;;;;;;5008756;28;20078;-73
2023/06/12 14:01:46;;;;;;;9.50;7.10;;;;;;;;;;5010788;28;20049;-72
2023/06/12 14:04:11;;;;;;;10.40;6.50;;;;;;;;;;5012619;28;20544;-72
2023/06/12 14:06:37;;;;;;;10.75;6.50;;;;;;;;;;5013826;28;20042;-72
2023/06/12 14:09:02;;;;;;;12.05;8.93;;;;;;;;;;5013135;28;20072;-72
2023/06/12 14:11:27;;;;;;;13.85;9.63;;;;;;;;;;5013102;28;20037;-72
2023/06/12 14:13:53;;;;;;;11.80;9.02;;;;;;;;;;5009306;28;20038;-72
2023/06/12 14:16:20;;;;;;;14.35;8.50;;;;;;;;;;5013646;28;20095;-72
2023/06/12 14:18:46;;;;;;;12.32;8.57;;;;;;;;;;5009827;28;20034;-72
2023/06/12 14:21:11;;;;;;;15.55;8.82;;;;;;;;;;5014053;28;20539;-72
2023/06/12 14:23:39;;;;;;;12.82;8.93;;;;;;;;;;5012591;28;20056;-73